Ray, ND (58849)

1:54 PM CST on February 19, 2017 (GMT -0600)
Heavenly Hills | | Change Station

Elev 1926 ft 48.16 °N, 103.15 °W | Updated 26 seconds ago

Overcast
Overcast
35.2 °F
Feels Like 35 °F
N
1.3
Wind Variable Wind from NE
Gusts 2.5 mph

Today
High -- | Low -- °F
--% Chance of Precip.
Yesterday
High -- | Low -- °F
Precip. -- in
Pressure 29.50 in
Visibility 2.5 miles
Clouds Overcast 200 ft
Windchill 35 °F
Dew Point 30 °F
Humidity 80%
Rainfall 0.00 in
Snow Depth Not available.
7:52 AM 6:21 PM
Last Quarter, 41% visible
METAR KD60 191935Z AUTO 10011KT 2 1/2SM BR OVC002 00/00 A2950 RMK AO2
Pressure 29.50 in
Visibility 2.5 miles
Clouds Overcast 200 ft
Windchill 35 °F
Dew Point 30 °F
Humidity 80%
Rainfall 0.00 in
Snow Depth Not available.
7:52 AM 6:21 PM
Last Quarter, 41% visible
METAR KD60 191935Z AUTO 10011KT 2 1/2SM BR OVC002 00/00 A2950 RMK AO2

Get Your Daily Forecast Email!

Thanks for signing up!

Be on the lookout for a verification email in your inbox.

You'll start receiving the daily forecast at 8 AM.

×

10-Day Weather Forecast

Almanac

Astronomy

Feb. 19, 2017 Rise Set
Actual Time
Civil Twilight
Nautical Twilight
Astronomical Twilight
Moon
Length of Visible Light
Length of Day
Tomorrow will be .
, % of the Moon is Illuminated

Today's Extremes

State Highs State Lows

Community

WunderPhotos

Upload Photos

1,962,540 photos uploaded!

WunderBlog® & News

Nearby

Air Quality

  Air Quality AQ Index Pollutant
Not available.

Snow Depth

Station Depth Elevation

Earthquake Activity

City Distance Mag. Time & Date
Minimum magnitude displayed is 2.5.

Coastal Water Temperatures

Place Temperature

Stations

Nearby Weather Stations

Station Location Temp. Windchill Dew Point Humidity Wind Precip. Elev Updated Type
                   

Watches & Warnings

There are currently no watches in effect.